createdAt,value
2023-04-21T00:01:30.071Z,100681.65
2023-04-21T00:03:58.135Z,100683.38
2023-04-21T00:06:27.042Z,100688.91
2023-04-21T00:08:54.974Z,100686.31
2023-04-21T00:11:22.891Z,100684.05
2023-04-21T00:13:50.773Z,100684.74
2023-04-21T00:16:18.527Z,100681.61
2023-04-21T00:18:48.000Z,100684.38
2023-04-21T00:21:16.383Z,100682.27
2023-04-21T00:23:44.213Z,100682.25
2023-04-21T00:26:11.955Z,100681.18
2023-04-21T00:28:42.089Z,100681.84
2023-04-21T00:31:09.980Z,100678.73
2023-04-21T00:33:37.838Z,100675.57
2023-04-21T00:36:06.219Z,100675.02
2023-04-21T00:38:34.054Z,100676.21
2023-04-21T00:41:01.938Z,100677.41
2023-04-21T00:43:29.868Z,100671.52
2023-04-21T00:45:57.984Z,100677.54
2023-04-21T00:48:25.740Z,100676.46
2023-04-21T00:50:53.738Z,100676.76
2023-04-21T00:53:22.233Z,100680.02
2023-04-21T00:55:50.607Z,100676.85
2023-04-21T00:58:18.471Z,100676.13
2023-04-21T01:00:46.336Z,100678.20
2023-04-21T01:03:14.433Z,100678.73
2023-04-21T01:05:42.888Z,100671.10
2023-04-21T01:08:13.394Z,100673.33
2023-04-21T01:10:41.207Z,100671.24
2023-04-21T01:13:09.175Z,100671.38
2023-04-21T01:15:36.916Z,100671.66
2023-04-21T01:18:06.131Z,100671.64
2023-04-21T01:20:34.520Z,100671.81
2023-04-21T01:23:02.340Z,100674.90
2023-04-21T01:25:30.266Z,100670.17
2023-04-21T01:27:58.134Z,100669.20
2023-04-21T01:30:25.848Z,100666.86
2023-04-21T01:32:53.822Z,100669.32
2023-04-21T01:35:21.673Z,100668.64
2023-04-21T01:37:49.601Z,100670.02
2023-04-21T01:40:19.977Z,100669.42
2023-04-21T01:42:47.786Z,100669.68
2023-04-21T01:45:15.655Z,100669.71
2023-04-21T01:47:43.569Z,100668.16
2023-04-21T01:50:11.679Z,100668.19
2023-04-21T01:52:39.454Z,100671.55
2023-04-21T01:55:07.669Z,100676.05
2023-04-21T01:57:36.232Z,100677.84
2023-04-21T02:00:05.237Z,100677.98
2023-04-21T02:02:43.086Z,100681.92
2023-04-21T02:05:14.189Z,100683.84
2023-04-21T02:07:42.953Z,100683.23
2023-04-21T02:10:11.589Z,100678.80
2023-04-21T02:12:39.335Z,100681.56
2023-04-21T02:15:07.821Z,100681.41
2023-04-21T02:17:36.774Z,100685.06
2023-04-21T02:20:05.770Z,100682.61
2023-04-21T02:22:33.690Z,100687.04
2023-04-21T02:25:05.747Z,100690.75
2023-04-21T02:27:33.877Z,100692.86
2023-04-21T02:30:02.184Z,100692.91
2023-04-21T02:32:30.301Z,100693.35
2023-04-21T02:34:58.121Z,100695.30
2023-04-21T02:37:26.654Z,100691.90
2023-04-21T02:39:54.433Z,100689.05
2023-04-21T02:42:22.150Z,100687.93
2023-04-21T02:44:50.090Z,100686.31
2023-04-21T02:47:17.919Z,100686.70
2023-04-21T02:49:45.750Z,100682.27
2023-04-21T02:52:13.652Z,100680.09
2023-04-21T02:54:41.627Z,100679.66
2023-04-21T02:57:09.950Z,100684.90
2023-04-21T02:59:37.760Z,100683.91
2023-04-21T03:02:05.624Z,100681.97
2023-04-21T03:04:34.302Z,100685.23
2023-04-21T03:07:02.303Z,100687.28
2023-04-21T03:09:30.049Z,100685.98
2023-04-21T03:11:57.796Z,100683.89
2023-04-21T03:14:25.602Z,100688.17
2023-04-21T03:16:53.459Z,100688.04
2023-04-21T03:19:21.580Z,100689.40
2023-04-21T03:21:49.659Z,100683.58
2023-04-21T03:24:17.496Z,100683.88
2023-04-21T03:26:45.304Z,100680.73
2023-04-21T03:29:13.069Z,100681.19
2023-04-21T03:31:40.799Z,100681.92
2023-04-21T03:34:08.521Z,100681.61
2023-04-21T03:36:36.255Z,100676.11
2023-04-21T03:39:16.908Z,100679.30
2023-04-21T03:41:48.400Z,100680.85
2023-04-21T03:44:16.151Z,100677.72
2023-04-21T03:46:43.995Z,100682.84
2023-04-21T03:49:11.736Z,100684.91
2023-04-21T03:51:39.463Z,100682.83
2023-04-21T03:54:08.421Z,100685.92
2023-04-21T03:56:36.260Z,100683.90
2023-04-21T03:59:04.480Z,100682.88
2023-04-21T04:02:48.813Z,100686.86
2023-04-21T04:05:16.807Z,100687.17
2023-04-21T04:07:45.282Z,100686.89
2023-04-21T04:10:13.177Z,100687.14
2023-04-21T04:12:41.138Z,100685.85
2023-04-21T04:15:09.619Z,100685.13
2023-04-21T04:17:37.582Z,100686.27
2023-04-21T04:20:08.450Z,100690.67
2023-04-21T04:22:36.379Z,100691.31
2023-04-21T04:25:05.410Z,100692.40
2023-04-21T04:27:34.691Z,100692.36
2023-04-21T04:34:38.446Z,100693.51
2023-04-21T04:37:06.682Z,100695.86
2023-04-21T04:39:35.166Z,100688.87
2023-04-21T04:42:03.820Z,100686.58
2023-04-21T04:44:31.956Z,100686.23
2023-04-21T04:46:59.887Z,100688.62
2023-04-21T04:49:28.069Z,100685.81
2023-04-21T04:51:56.129Z,100682.84
2023-04-21T04:54:25.295Z,100685.70
2023-04-21T04:56:53.308Z,100681.07
2023-04-21T04:59:21.619Z,100680.50
2023-04-21T05:01:49.593Z,100682.00
2023-04-21T05:04:17.800Z,100684.37
2023-04-21T05:06:46.271Z,100681.14
2023-04-21T05:09:14.310Z,100677.96
2023-04-21T05:11:42.379Z,100683.65
2023-04-21T05:14:10.508Z,100683.81
2023-04-21T05:16:38.472Z,100688.61
2023-04-21T05:19:06.457Z,100686.08
2023-04-21T05:21:34.934Z,100689.49
2023-04-21T05:24:03.032Z,100692.46
2023-04-21T05:26:31.655Z,100690.00
2023-04-21T05:28:59.571Z,100693.91
2023-04-21T05:31:27.478Z,100701.42
2023-04-21T05:33:55.471Z,100698.73
2023-04-21T05:36:24.975Z,100700.21
2023-04-21T05:38:54.070Z,100698.70
2023-04-21T05:41:22.705Z,100695.59
2023-04-21T05:43:50.756Z,100694.95
2023-04-21T05:46:18.745Z,100694.68
2023-04-21T05:48:46.866Z,100696.35
2023-04-21T05:51:18.229Z,100693.98
2023-04-21T05:53:46.405Z,100691.44
2023-04-21T05:56:14.804Z,100691.34
2023-04-21T05:58:42.910Z,100691.33
2023-04-21T06:01:11.512Z,100693.94
2023-04-21T06:03:39.696Z,100694.58
2023-04-21T06:06:11.586Z,100694.07
2023-04-21T06:08:39.758Z,100688.23
2023-04-21T06:11:07.716Z,100688.86
2023-04-21T06:13:38.180Z,100689.14
2023-04-21T06:16:07.171Z,100689.44
2023-04-21T06:18:35.261Z,100687.55
2023-04-21T06:21:03.406Z,100687.70
2023-04-21T06:23:31.274Z,100682.45
2023-04-21T06:26:04.199Z,100683.52
2023-04-21T06:28:36.005Z,100681.02
2023-04-21T06:31:06.193Z,100678.30
2023-04-21T06:33:37.196Z,100680.91
2023-04-21T06:36:05.452Z,100676.65
2023-04-21T06:38:33.499Z,100675.48
2023-04-21T06:41:02.427Z,100672.56
2023-04-21T06:43:30.571Z,100671.79
2023-04-21T06:45:59.167Z,100667.89
2023-04-21T06:48:27.896Z,100666.41
2023-04-21T06:50:55.922Z,100668.38
2023-04-21T06:53:24.006Z,100669.52
2023-04-21T06:55:53.500Z,100663.42
2023-04-21T06:58:21.620Z,100667.91
2023-04-21T07:00:49.658Z,100665.14
2023-04-21T07:03:17.838Z,100668.08
2023-04-21T07:05:47.284Z,100664.83
2023-04-21T07:08:15.357Z,100665.35
2023-04-21T07:10:43.311Z,100669.88
2023-04-21T07:13:11.415Z,100666.98
2023-04-21T07:15:39.430Z,100664.86
2023-04-21T07:18:07.700Z,100666.44
2023-04-21T07:20:35.810Z,100664.23
2023-04-21T07:23:03.994Z,100665.36
2023-04-21T07:25:32.081Z,100669.63
2023-04-21T07:28:00.467Z,100665.63
2023-04-21T07:30:29.400Z,100663.66
2023-04-21T07:32:57.781Z,100665.13
2023-04-21T07:35:26.165Z,100655.89
2023-04-21T07:37:54.179Z,100662.11
2023-04-21T07:40:22.221Z,100660.68
2023-04-21T07:42:50.350Z,100661.80
2023-04-21T07:45:18.386Z,100658.89
2023-04-21T07:47:46.930Z,100655.02
2023-04-21T07:50:15.420Z,100653.50
2023-04-21T07:52:43.380Z,100652.83
2023-04-21T07:55:11.380Z,100648.07
2023-04-21T07:57:40.424Z,100646.16
2023-04-21T08:00:09.451Z,100643.67
2023-04-21T08:02:40.490Z,100644.05
2023-04-21T08:05:09.198Z,100642.36
2023-04-21T08:07:37.532Z,100639.66
2023-04-21T08:10:06.826Z,100640.98
2023-04-21T08:12:34.768Z,100640.83
2023-04-21T08:15:06.051Z,100640.45
2023-04-21T08:17:34.931Z,100641.44
2023-04-21T08:20:03.989Z,100637.96
2023-04-21T08:22:31.919Z,100641.00
2023-04-21T08:25:00.016Z,100640.92
2023-04-21T08:27:30.772Z,100638.86
2023-04-21T08:30:00.319Z,100641.98
2023-04-21T08:32:28.831Z,100641.14
2023-04-21T08:34:57.217Z,100631.97
2023-04-21T08:37:25.705Z,100636.02
2023-04-21T08:39:54.594Z,100631.17
2023-04-21T08:42:22.738Z,100631.90
2023-04-21T08:44:51.039Z,100632.50
2023-04-21T08:47:20.809Z,100636.84
2023-04-21T08:49:51.345Z,100632.77
2023-04-21T08:52:19.850Z,100631.37
2023-04-21T08:54:52.041Z,100633.62
2023-04-21T08:57:20.415Z,100627.17
2023-04-21T08:59:48.591Z,100622.63
2023-04-21T09:02:19.491Z,100624.38
2023-04-21T09:04:52.905Z,100623.33
2023-04-21T09:07:32.278Z,100623.04
2023-04-21T09:10:00.878Z,100616.77
2023-04-21T09:12:30.096Z,100619.01
2023-04-21T09:14:58.968Z,100619.71
2023-04-21T09:17:37.024Z,100619.73
2023-04-21T09:20:17.941Z,100617.49
2023-04-21T09:22:49.810Z,100610.23
2023-04-21T09:25:20.718Z,100602.36
2023-04-21T09:27:49.090Z,100605.11
2023-04-21T09:30:20.777Z,100604.80
2023-04-21T09:32:49.882Z,100610.50
2023-04-21T09:35:18.397Z,100600.85
2023-04-21T09:37:46.676Z,100604.27
2023-04-21T09:40:17.857Z,100605.00
2023-04-21T09:42:46.537Z,100604.71
2023-04-21T09:47:53.052Z,100610.94
2023-04-21T09:50:41.840Z,100599.90
2023-04-21T09:53:16.670Z,100599.91
2023-04-21T09:55:48.387Z,100595.10
2023-04-21T09:58:20.392Z,100588.27
2023-04-21T10:00:49.661Z,100587.27
2023-04-21T10:03:19.976Z,100588.05
2023-04-21T10:05:48.298Z,100588.95
2023-04-21T10:08:17.344Z,100586.11
2023-04-21T10:10:46.319Z,100581.60
2023-04-21T10:13:18.633Z,100578.95
2023-04-21T10:15:46.809Z,100571.59
2023-04-21T10:18:20.055Z,100574.45
2023-04-21T10:21:22.277Z,100571.73
2023-04-21T10:23:54.620Z,100569.27
2023-04-21T10:26:38.357Z,100560.47
2023-04-21T10:29:09.634Z,100563.36
2023-04-21T10:31:51.488Z,100560.70
2023-04-21T10:34:34.800Z,100555.00
2023-04-21T10:37:06.254Z,100556.20
2023-04-21T10:39:42.576Z,100556.33
2023-04-21T10:42:13.937Z,100550.81
2023-04-21T10:44:52.330Z,100543.66
2023-04-21T10:47:41.211Z,100540.16
2023-04-21T10:50:12.816Z,100537.09
2023-04-21T10:52:47.631Z,100540.30
2023-04-21T10:55:17.280Z,100539.85
2023-04-21T10:57:45.567Z,100539.48
2023-04-21T11:04:37.586Z,100526.45
2023-04-21T11:07:08.360Z,100524.99
2023-04-21T11:09:38.458Z,100522.13
2023-04-21T11:12:11.973Z,100528.09
2023-04-21T11:14:42.250Z,100521.45
2023-04-21T11:17:18.210Z,100517.00
2023-04-21T11:19:56.759Z,100514.94
2023-04-21T11:22:26.913Z,100504.11
2023-04-21T11:24:57.259Z,100508.10
2023-04-21T11:27:32.151Z,100502.76
2023-04-21T11:30:03.849Z,100501.77
2023-04-21T11:32:31.879Z,100493.98
2023-04-21T11:35:00.573Z,100489.98
2023-04-21T11:37:28.588Z,100486.73
2023-04-21T11:39:58.469Z,100483.35
2023-04-21T11:42:27.724Z,100482.31
2023-04-21T11:44:57.181Z,100481.06
2023-04-21T11:47:28.322Z,100481.06
2023-04-21T11:49:58.936Z,100480.77
2023-04-21T11:52:33.498Z,100478.11
2023-04-21T11:55:08.266Z,100477.29
2023-04-21T11:57:36.721Z,100475.02
2023-04-21T12:00:06.754Z,100466.52
2023-04-21T12:02:35.168Z,100464.24
2023-04-21T12:05:13.912Z,100460.10
2023-04-21T12:07:43.515Z,100458.02
2023-04-21T12:10:12.596Z,100452.69
2023-04-21T12:12:41.810Z,100452.89
2023-04-21T12:15:12.252Z,100458.39
2023-04-21T12:17:48.119Z,100454.93
2023-04-21T12:20:17.969Z,100448.30
2023-04-21T12:22:46.746Z,100446.98
2023-04-21T12:25:15.508Z,100441.33
2023-04-21T12:27:51.173Z,100440.91
2023-04-21T12:30:20.269Z,100439.45
2023-04-21T12:32:48.594Z,100439.40
2023-04-21T12:35:16.863Z,100430.88
2023-04-21T12:37:45.235Z,100427.87
2023-04-21T12:40:13.264Z,100423.91
2023-04-21T12:42:41.619Z,100421.33
2023-04-21T12:45:10.552Z,100413.44
2023-04-21T12:47:39.464Z,100406.47
2023-04-21T12:50:08.690Z,100419.73
2023-04-21T12:52:36.798Z,100418.16
2023-04-21T12:55:05.033Z,100417.10
2023-04-21T12:57:33.619Z,100410.11
2023-04-21T13:00:01.716Z,100411.66
2023-04-21T13:02:31.512Z,100411.08
2023-04-21T13:05:00.009Z,100405.23
2023-04-21T13:07:31.316Z,100406.69
2023-04-21T13:09:59.392Z,100399.70
2023-04-21T13:12:27.299Z,100398.98
2023-04-21T13:14:55.220Z,100396.20
2023-04-21T13:17:23.729Z,100396.53
2023-04-21T13:19:52.293Z,100388.83
2023-04-21T13:22:20.558Z,100389.38
2023-04-21T13:24:48.619Z,100389.14
2023-04-21T13:27:16.672Z,100385.98
2023-04-21T13:29:44.591Z,100382.77
2023-04-21T13:32:15.590Z,100377.67
2023-04-21T13:34:43.525Z,100372.23
2023-04-21T13:37:16.548Z,100367.88
2023-04-21T13:39:44.497Z,100370.64
2023-04-21T13:42:12.548Z,100366.67
2023-04-21T13:44:40.707Z,100364.31
2023-04-21T13:47:11.788Z,100365.25
2023-04-21T13:49:40.230Z,100353.05
2023-04-21T13:52:08.236Z,100355.67
2023-04-21T13:54:36.159Z,100354.98
2023-04-21T13:57:05.624Z,100354.13
2023-04-21T13:59:34.332Z,100347.65
2023-04-21T14:02:02.710Z,100346.89
2023-04-21T14:04:31.259Z,100344.65
2023-04-21T14:07:00.255Z,100339.66
2023-04-21T14:09:28.669Z,100338.06
2023-04-21T14:11:57.044Z,100339.36
2023-04-21T14:14:37.754Z,100338.88
2023-04-21T14:17:07.976Z,100329.94
2023-04-21T14:19:36.820Z,100329.80
2023-04-21T14:22:04.999Z,100328.85
2023-04-21T14:24:33.061Z,100332.02
2023-04-21T14:27:01.229Z,100328.52
2023-04-21T14:29:29.203Z,100324.23
2023-04-21T14:31:58.792Z,100322.05
2023-04-21T14:34:27.216Z,100319.63
2023-04-21T14:36:55.969Z,100318.87
2023-04-21T14:39:24.462Z,100314.79
2023-04-21T14:41:52.495Z,100308.80
2023-04-21T14:44:20.648Z,100306.16
2023-04-21T14:47:00.868Z,100303.44
2023-04-21T14:49:34.517Z,100304.31
2023-04-21T14:52:03.843Z,100302.69
2023-04-21T14:54:31.972Z,100306.30
2023-04-21T14:57:17.828Z,100300.98
2023-04-21T14:59:47.009Z,100302.28
2023-04-21T15:02:15.662Z,100298.17
2023-04-21T15:04:44.246Z,100293.66
2023-04-21T15:07:12.827Z,100292.98
2023-04-21T15:09:45.769Z,100291.76
2023-04-21T15:12:15.295Z,100290.22
2023-04-21T15:14:43.426Z,100288.84
2023-04-21T15:17:11.684Z,100281.94
2023-04-21T15:19:39.789Z,100279.30
2023-04-21T15:22:07.915Z,100280.57
2023-04-21T15:24:35.972Z,100279.37
2023-04-21T15:27:04.313Z,100277.89
2023-04-21T15:29:32.721Z,100275.03
2023-04-21T15:32:00.952Z,100274.39
2023-04-21T15:34:28.802Z,100273.54
2023-04-21T15:36:57.480Z,100272.49
2023-04-21T15:39:25.861Z,100267.81
2023-04-21T15:41:55.221Z,100266.41
2023-04-21T15:44:23.278Z,100265.27
2023-04-21T15:46:51.400Z,100263.55
2023-04-21T15:49:19.384Z,100263.23
2023-04-21T15:51:47.358Z,100261.39
2023-04-21T15:54:16.259Z,100262.42
2023-04-21T15:56:44.240Z,100257.27
2023-04-21T15:59:12.177Z,100255.64
2023-04-21T16:01:40.404Z,100254.17
2023-04-21T16:04:08.820Z,100252.33
2023-04-21T16:06:38.079Z,100253.83
2023-04-21T16:09:06.308Z,100251.38
2023-04-21T16:11:34.543Z,100251.15
2023-04-21T16:14:02.710Z,100247.73
2023-04-21T16:16:30.649Z,100249.36
2023-04-21T16:18:58.829Z,100247.92
2023-04-21T16:21:27.995Z,100247.39
2023-04-21T16:23:56.429Z,100249.69
2023-04-21T16:26:27.797Z,100250.35
2023-04-21T16:28:57.140Z,100250.55
2023-04-21T16:31:25.621Z,100251.57
2023-04-21T16:33:59.410Z,100247.28
2023-04-21T16:36:28.468Z,100245.17
2023-04-21T16:38:57.384Z,100244.98
2023-04-21T16:41:25.524Z,100246.96
2023-04-21T16:43:53.573Z,100247.16
2023-04-21T16:46:22.144Z,100242.86
2023-04-21T16:48:50.109Z,100243.86
2023-04-21T16:51:18.098Z,100240.31
2023-04-21T16:53:46.120Z,100241.48
2023-04-21T16:56:14.891Z,100242.23
2023-04-21T16:58:43.038Z,100242.28
2023-04-21T17:01:11.647Z,100240.13
2023-04-21T17:03:39.704Z,100239.86
2023-04-21T17:06:10.851Z,100241.73
2023-04-21T17:08:38.882Z,100243.34
2023-04-21T17:11:06.936Z,100246.83
2023-04-21T17:13:38.203Z,100244.34
2023-04-21T17:16:09.681Z,100243.98
2023-04-21T17:18:37.641Z,100244.16
2023-04-21T17:21:06.371Z,100244.71
2023-04-21T17:23:34.725Z,100246.14
2023-04-21T17:26:03.762Z,100244.95
2023-04-21T17:28:32.162Z,100249.09
2023-04-21T17:31:13.633Z,100250.17
2023-04-21T17:33:43.873Z,100252.02
2023-04-21T17:36:12.405Z,100253.09
2023-04-21T17:38:42.704Z,100257.18
2023-04-21T17:41:11.547Z,100257.52
2023-04-21T17:43:39.593Z,100256.00
2023-04-21T17:46:07.902Z,100258.85
2023-04-21T17:48:35.960Z,100256.98
2023-04-21T17:51:04.147Z,100259.02
2023-04-21T17:53:32.137Z,100259.05
2023-04-21T17:56:00.231Z,100259.62
2023-04-21T17:58:28.483Z,100265.84
2023-04-21T18:00:57.177Z,100269.77
2023-04-21T18:03:25.788Z,100271.51
2023-04-21T18:05:55.061Z,100271.50
2023-04-21T18:08:23.366Z,100275.56
2023-04-21T18:10:51.270Z,100275.15
2023-04-21T18:13:19.482Z,100277.52
2023-04-21T18:15:47.472Z,100274.69
2023-04-21T18:18:15.460Z,100273.77
2023-04-21T18:20:43.544Z,100272.00
2023-04-21T18:23:11.855Z,100278.37
2023-04-21T18:25:42.930Z,100275.71
2023-04-21T18:28:12.820Z,100274.12
2023-04-21T18:30:41.448Z,100273.34
2023-04-21T18:33:11.784Z,100272.67
2023-04-21T18:35:42.096Z,100278.09
2023-04-21T18:38:11.960Z,100276.86
2023-04-21T18:40:41.379Z,100279.11
2023-04-21T18:43:10.616Z,100276.64
2023-04-21T18:45:39.313Z,100278.49
2023-04-21T18:48:07.529Z,100278.60
2023-04-21T18:50:39.859Z,100276.77
2023-04-21T18:53:09.141Z,100276.19
2023-04-21T18:55:37.731Z,100279.52
2023-04-21T18:58:06.520Z,100280.10
2023-04-21T19:04:36.721Z,100281.08
2023-04-21T19:07:08.307Z,100280.42
2023-04-21T19:09:37.476Z,100280.61
2023-04-21T19:12:05.645Z,100279.58
2023-04-21T19:14:42.708Z,100279.59
2023-04-21T19:17:14.480Z,100275.27
2023-04-21T19:19:43.163Z,100277.16
2023-04-21T19:22:11.111Z,100278.53
2023-04-21T19:24:39.342Z,100279.91
2023-04-21T19:27:08.086Z,100274.55
2023-04-21T19:29:37.102Z,100274.52
2023-04-21T19:32:05.144Z,100274.16
2023-04-21T19:34:33.113Z,100275.83
2023-04-21T19:37:01.248Z,100267.33
2023-04-21T19:39:29.368Z,100272.14
2023-04-21T19:41:58.032Z,100271.92
2023-04-21T19:44:25.936Z,100271.71
2023-04-21T19:46:53.900Z,100272.19
2023-04-21T19:49:21.833Z,100273.36
2023-04-21T19:51:49.797Z,100276.74
2023-04-21T19:54:17.871Z,100275.66
2023-04-21T19:56:45.843Z,100277.50
2023-04-21T19:59:13.892Z,100275.71
2023-04-21T20:01:41.949Z,100280.31
2023-04-21T20:04:11.982Z,100284.20
2023-04-21T20:06:41.561Z,100282.07
2023-04-21T20:09:10.547Z,100283.56
2023-04-21T20:11:38.496Z,100281.42
2023-04-21T20:14:06.451Z,100283.80
2023-04-21T20:16:34.606Z,100284.09
2023-04-21T20:19:02.712Z,100283.33
2023-04-21T20:21:30.638Z,100283.29
2023-04-21T20:23:58.646Z,100282.55
2023-04-21T20:26:26.700Z,100282.16
2023-04-21T20:28:54.921Z,100285.21
2023-04-21T20:31:25.723Z,100285.49
2023-04-21T20:33:53.850Z,100284.59
2023-04-21T20:36:22.286Z,100279.35
2023-04-21T20:38:50.832Z,100284.48
2023-04-21T20:41:18.769Z,100287.70
2023-04-21T20:43:46.713Z,100286.10
2023-04-21T20:46:15.643Z,100288.29
2023-04-21T20:48:43.616Z,100291.02
2023-04-21T20:51:12.411Z,100291.98
2023-04-21T20:53:40.527Z,100298.13
2023-04-21T20:56:08.614Z,100293.59
2023-04-21T20:58:36.763Z,100297.00
2023-04-21T21:01:04.863Z,100293.52
2023-04-21T21:03:33.033Z,100295.02
2023-04-21T21:06:01.074Z,100298.39
2023-04-21T21:08:29.236Z,100298.98
2023-04-21T21:10:57.646Z,100298.73
2023-04-21T21:13:25.990Z,100301.74
2023-04-21T21:15:54.025Z,100300.77
2023-04-21T21:18:21.930Z,100301.41
2023-04-21T21:20:49.861Z,100291.85
2023-04-21T21:23:17.803Z,100295.05
2023-04-21T21:25:45.820Z,100292.95
2023-04-21T21:28:13.660Z,100293.95
2023-04-21T21:30:41.576Z,100287.75
2023-04-21T21:33:09.519Z,100292.36
2023-04-21T21:35:37.570Z,100290.93
2023-04-21T21:38:05.627Z,100290.23
2023-04-21T21:40:33.570Z,100287.40
2023-04-21T21:43:01.747Z,100285.62
2023-04-21T21:45:29.839Z,100285.73
2023-04-21T21:47:58.095Z,100287.75
2023-04-21T21:50:26.084Z,100287.52
2023-04-21T21:52:54.129Z,100289.88
2023-04-21T21:55:22.229Z,100288.96
2023-04-21T21:57:50.478Z,100292.33
2023-04-21T22:00:18.755Z,100291.89
2023-04-21T22:02:46.678Z,100287.16
2023-04-21T22:05:15.061Z,100288.08
2023-04-21T22:07:43.173Z,100287.64
2023-04-21T22:10:11.913Z,100289.64
2023-04-21T22:12:39.926Z,100286.84
2023-04-21T22:15:08.947Z,100287.64
2023-04-21T22:17:37.972Z,100290.35
2023-04-21T22:20:07.539Z,100289.78
2023-04-21T22:22:36.164Z,100291.08
2023-04-21T22:25:05.754Z,100292.42
2023-04-21T22:27:34.257Z,100291.20
2023-04-21T22:30:03.644Z,100290.58
2023-04-21T22:32:32.538Z,100289.29
2023-04-21T22:35:01.486Z,100286.10
2023-04-21T22:37:29.866Z,100287.56
2023-04-21T22:39:57.836Z,100287.15
2023-04-21T22:42:26.153Z,100281.92
2023-04-21T22:44:54.200Z,100280.35
2023-04-21T22:47:22.802Z,100283.04
2023-04-21T22:49:51.535Z,100279.50
2023-04-21T22:52:19.512Z,100281.27
2023-04-21T22:54:47.505Z,100279.30
2023-04-21T22:57:15.479Z,100280.25
2023-04-21T22:59:43.403Z,100280.69
2023-04-21T23:02:11.604Z,100279.42
2023-04-21T23:04:39.614Z,100277.67
2023-04-21T23:07:07.791Z,100279.18
2023-04-21T23:09:35.865Z,100277.08
2023-04-21T23:12:06.115Z,100277.71
2023-04-21T23:14:34.237Z,100274.52
2023-04-21T23:17:02.293Z,100273.64
2023-04-21T23:19:30.273Z,100272.53
2023-04-21T23:21:58.262Z,100276.27
2023-04-21T23:24:26.312Z,100277.38
2023-04-21T23:26:54.226Z,100287.76
2023-04-21T23:29:22.133Z,100293.24
2023-04-21T23:31:50.182Z,100288.55
2023-04-21T23:34:18.181Z,100293.51
2023-04-21T23:36:46.100Z,100289.96
2023-04-21T23:39:14.124Z,100290.35
2023-04-21T23:41:42.526Z,100291.17
2023-04-21T23:44:11.283Z,100289.22
2023-04-21T23:46:39.443Z,100286.18
2023-04-21T23:49:08.984Z,100290.11
2023-04-21T23:51:37.224Z,100287.72
2023-04-21T23:54:05.351Z,100289.73
2023-04-21T23:56:33.418Z,100285.83
2023-04-21T23:59:01.711Z,100286.98
